Time;durP1;ratioP1;P1;durP2;ratioP2;P2;SDS_P1;SDS_P2;PMS_P1;PMS_P2;Temp;Humidity;BMP_temperature;BMP_pressure;BME280_temperature;BME280_humidity;BME280_pressure;Samples;Min_cycle;Max_cycle;Signal;HPM_P1;HPM_P2
2024/02/02 00:00:05;;;;;;;6.65;4.07;;;;;;;5.90;35.78;99178.09;5012206;28;20076;-73
2024/02/02 00:02:37;;;;;;;6.22;3.90;;;;;;;5.93;35.22;99170.19;4994911;28;20041;-73
2024/02/02 00:05:03;;;;;;;6.80;3.95;;;;;;;5.89;35.64;99164.31;4994490;28;20045;-73
2024/02/02 00:07:29;;;;;;;6.82;4.25;;;;;;;5.94;35.45;99175.28;4995017;28;20034;-72
2024/02/02 00:09:56;;;;;;;6.85;4.00;;;;;;;5.90;35.66;99165.16;5011922;28;20168;-73
2024/02/02 00:12:22;;;;;;;7.10;3.90;;;;;;;5.94;35.84;99169.28;4978646;28;20034;-73
2024/02/02 00:14:48;;;;;;;10.65;4.25;;;;;;;5.95;35.90;99173.53;4994673;28;20068;-71
2024/02/02 00:17:13;;;;;;;7.85;4.03;;;;;;;5.93;35.51;99178.81;4994675;28;20505;-72
2024/02/02 00:19:39;;;;;;;7.20;3.97;;;;;;;5.93;35.85;99168.44;4978336;28;20124;-72
2024/02/02 00:22:05;;;;;;;6.50;3.65;;;;;;;5.95;35.81;99182.16;4994812;28;20057;-72
2024/02/02 00:24:30;;;;;;;6.20;3.97;;;;;;;5.94;35.68;99170.09;4978914;28;20119;-71
2024/02/02 00:26:56;;;;;;;8.85;4.10;;;;;;;5.94;35.67;99164.91;5011054;28;20506;-73
2024/02/02 00:29:22;;;;;;;6.50;3.92;;;;;;;5.90;35.57;99163.41;4994239;28;20046;-73
2024/02/02 00:31:47;;;;;;;6.28;3.92;;;;;;;5.92;35.72;99160.75;4994491;28;20073;-70
2024/02/02 00:34:13;;;;;;;6.30;4.20;;;;;;;5.97;35.99;99162.19;4994814;28;20477;-73
2024/02/02 00:36:38;;;;;;;7.70;4.40;;;;;;;5.98;35.56;99161.28;5011860;28;20073;-71
2024/02/02 00:39:04;;;;;;;6.65;3.90;;;;;;;6.00;35.47;99158.63;5012328;28;20038;-72
2024/02/02 00:41:30;;;;;;;7.63;4.20;;;;;;;6.00;35.84;99161.22;5012033;28;20069;-71
2024/02/02 00:43:55;;;;;;;8.90;4.30;;;;;;;6.00;35.56;99158.63;5011804;28;20508;-72
2024/02/02 00:46:21;;;;;;;10.02;4.47;;;;;;;5.98;35.48;99150.94;5011804;28;20038;-71
2024/02/02 00:48:46;;;;;;;7.80;4.63;;;;;;;6.00;35.86;99152.63;4994424;28;20038;-71
2024/02/02 00:51:12;;;;;;;8.77;4.60;;;;;;;6.02;36.20;99150.78;4994203;28;20050;-71
2024/02/02 00:53:37;;;;;;;8.90;4.50;;;;;;;6.02;35.65;99150.78;4994917;28;20045;-73
2024/02/02 00:56:03;;;;;;;8.13;4.60;;;;;;;6.02;36.33;99153.38;4994480;28;20590;-72
2024/02/02 00:58:28;;;;;;;8.18;4.88;;;;;;;5.99;35.67;99141.41;4994437;28;20041;-72
2024/02/02 01:00:54;;;;;;;8.20;5.50;;;;;;;6.02;35.24;99146.41;4994388;28;20382;-74
2024/02/02 01:03:19;;;;;;;11.55;5.75;;;;;;;6.03;35.40;99150.69;4996300;28;20405;-73
2024/02/02 01:05:45;;;;;;;10.13;5.80;;;;;;;6.01;35.38;99152.53;5015737;28;20100;-73
2024/02/02 01:08:11;;;;;;;12.48;6.25;;;;;;;6.02;35.91;99149.00;5015411;28;20452;-73
2024/02/02 01:10:36;;;;;;;9.90;5.97;;;;;;;6.02;35.81;99155.97;5015392;28;20049;-72
2024/02/02 01:13:02;;;;;;;11.45;6.50;;;;;;;5.96;35.75;99141.50;4997936;28;20406;-71
2024/02/02 01:15:28;;;;;;;12.63;6.57;;;;;;;6.00;35.82;99153.44;5015589;28;20132;-71
2024/02/02 01:17:53;;;;;;;12.40;6.72;;;;;;;6.00;36.07;99155.22;5015289;28;20060;-72
2024/02/02 01:20:20;;;;;;;10.65;6.53;;;;;;;5.93;35.88;99142.53;5015572;28;20081;-72
2024/02/02 01:22:47;;;;;;;11.75;6.75;;;;;;;5.98;35.80;99156.13;4997907;28;20033;-71
2024/02/02 01:25:14;;;;;;;10.82;6.47;;;;;;;5.96;35.98;99157.06;4997924;28;20504;-71
2024/02/02 01:27:40;;;;;;;10.13;6.32;;;;;;;5.93;35.93;99145.13;5014882;28;20499;-71
2024/02/02 01:30:07;;;;;;;12.70;7.00;;;;;;;5.89;36.43;99141.00;4997660;28;20034;-72
2024/02/02 01:32:32;;;;;;;13.80;7.30;;;;;;;5.91;36.01;99148.69;4997239;28;20035;-72
2024/02/02 01:34:58;;;;;;;10.90;6.57;;;;;;;5.82;36.26;99143.97;4997442;28;20185;-74
2024/02/02 01:37:23;;;;;;;11.60;6.90;;;;;;;5.79;36.14;99127.66;4965008;28;20402;-72
2024/02/02 01:39:49;;;;;;;10.30;6.47;;;;;;;5.82;36.57;99136.19;4997252;28;20042;-73
2024/02/02 01:42:14;;;;;;;10.32;6.30;;;;;;;5.79;36.80;99134.63;4997338;28;20038;-74
2024/02/02 01:44:40;;;;;;;11.38;6.00;;;;;;;5.76;36.62;99132.19;4997240;28;20482;-72
2024/02/02 01:47:06;;;;;;;12.70;6.32;;;;;;;5.73;36.79;99133.16;4997076;28;20026;-72
2024/02/02 01:49:31;;;;;;;15.45;6.70;;;;;;;5.72;36.45;99138.41;4964629;28;20044;-72
2024/02/02 01:51:57;;;;;;;12.65;6.82;;;;;;;5.68;36.83;99137.75;4996974;28;20116;-72
2024/02/02 01:54:22;;;;;;;11.20;6.10;;;;;;;5.67;36.75;99130.03;4981107;28;20065;-72
2024/02/02 01:56:48;;;;;;;9.90;6.22;;;;;;;5.63;36.86;99129.38;4981507;28;20409;-72
2024/02/02 01:59:14;;;;;;;9.38;6.20;;;;;;;5.58;37.32;99121.81;4980838;28;20038;-73
2024/02/02 02:01:40;;;;;;;11.23;6.50;;;;;;;5.56;37.13;99128.81;4981007;28;20117;-73
2024/02/02 02:04:06;;;;;;;11.70;6.40;;;;;;;5.54;36.76;99125.47;4981357;28;20382;-73
2024/02/02 02:06:32;;;;;;;12.20;6.88;;;;;;;5.54;37.12;99130.66;4980788;28;20045;-72
2024/02/02 02:08:57;;;;;;;11.07;6.68;;;;;;;5.56;37.47;99130.56;5013906;28;20482;-73
2024/02/02 02:11:23;;;;;;;11.10;6.93;;;;;;;5.55;37.27;99134.06;4996691;28;20042;-72
2024/02/02 02:13:48;;;;;;;11.82;6.60;;;;;;;5.55;37.30;99136.66;4979534;28;20140;-74
2024/02/02 02:16:14;;;;;;;12.00;7.65;;;;;;;5.53;37.35;99128.97;5014016;28;20038;-72
2024/02/02 02:18:41;;;;;;;9.73;6.18;;;;;;;5.52;37.18;99126.44;4996412;28;20068;-72
2024/02/02 02:21:25;;;;;;;10.98;7.20;;;;;;;5.52;36.85;99126.44;4964427;28;20048;-72
2024/02/02 02:23:51;;;;;;;10.55;6.32;;;;;;;5.47;37.20;99124.09;5014128;28;20043;-72
2024/02/02 02:26:17;;;;;;;12.68;6.80;;;;;;;5.53;37.33;99128.13;4980314;28;20073;-73
2024/02/02 02:28:43;;;;;;;13.02;7.22;;;;;;;5.53;37.26;99130.72;4980475;28;20114;-73
2024/02/02 02:31:13;;;;;;;10.77;6.40;;;;;;;5.53;37.57;99128.97;4964302;28;20180;-71
2024/02/02 02:33:39;;;;;;;10.90;6.70;;;;;;;5.53;37.64;99134.13;4980127;28;20512;-72
2024/02/02 02:36:04;;;;;;;13.88;7.00;;;;;;;5.54;37.29;99129.81;4996256;28;20046;-71
2024/02/02 02:38:30;;;;;;;10.55;6.65;;;;;;;5.54;37.71;99122.06;4980087;28;20034;-72
2024/02/02 02:40:55;;;;;;;10.95;6.93;;;;;;;5.56;37.48;99123.63;5013746;28;20046;-72
2024/02/02 02:43:21;;;;;;;13.00;6.97;;;;;;;5.52;37.40;99110.91;4996150;28;20069;-71
2024/02/02 02:45:46;;;;;;;13.55;7.47;;;;;;;5.59;37.43;99117.47;4995964;28;20038;-72
2024/02/02 02:48:12;;;;;;;13.15;7.75;;;;;;;5.56;37.43;99115.03;4996552;28;20096;-72
2024/02/02 02:50:38;;;;;;;10.70;7.03;;;;;;;5.59;37.54;99128.66;4979718;28;20121;-72
2024/02/02 02:53:03;;;;;;;12.13;7.43;;;;;;;5.61;37.70;99123.41;5013540;28;20057;-72
2024/02/02 02:55:29;;;;;;;11.50;7.35;;;;;;;5.63;37.56;99126.78;4995989;28;20379;-72
2024/02/02 02:57:54;;;;;;;11.40;6.82;;;;;;;5.64;37.75;99125.84;4995844;28;20040;-72
2024/02/02 03:00:20;;;;;;;11.15;6.45;;;;;;;5.66;38.04;99124.03;5013108;28;20034;-72
2024/02/02 03:02:45;;;;;;;9.07;6.30;;;;;;;5.66;38.37;99118.84;4995612;28;20034;-72
2024/02/02 03:05:11;;;;;;;10.52;6.38;;;;;;;5.62;38.24;99114.72;5013329;28;20042;-72
2024/02/02 03:07:37;;;;;;;11.52;6.15;;;;;;;5.62;38.29;99112.13;4995532;28;20033;-72
2024/02/02 03:10:03;;;;;;;12.82;6.22;;;;;;;5.66;38.19;99107.63;4995620;28;20489;-72
2024/02/02 03:12:29;;;;;;;9.32;5.68;;;;;;;5.66;38.74;99118.84;4979393;28;20042;-72
2024/02/02 03:14:54;;;;;;;9.07;5.50;;;;;;;5.72;38.43;99120.28;4995648;28;20371;-72
2024/02/02 03:17:20;;;;;;;7.05;4.72;;;;;;;5.73;38.76;99120.22;4995751;28;20050;-72
2024/02/02 03:19:45;;;;;;;10.48;5.32;;;;;;;5.74;38.93;99124.47;5013205;28;20045;-72
2024/02/02 03:22:11;;;;;;;9.13;5.57;;;;;;;5.76;39.29;99132.19;4995400;28;20073;-72
2024/02/02 03:24:36;;;;;;;10.55;5.20;;;;;;;5.77;39.57;99139.00;4995806;28;20116;-71
2024/02/02 03:27:02;;;;;;;9.85;5.40;;;;;;;5.76;39.56;99129.59;5011947;28;20080;-73
2024/02/02 03:29:27;;;;;;;8.57;5.03;;;;;;;5.70;39.14;99124.72;5013048;28;20135;-72
2024/02/02 03:31:53;;;;;;;9.45;5.53;;;;;;;5.73;39.40;99140.09;5012786;28;20490;-73
2024/02/02 03:34:19;;;;;;;11.10;6.22;;;;;;;5.72;39.73;99143.59;5012797;28;20037;-72
2024/02/02 03:36:44;;;;;;;11.77;7.00;;;;;;;5.70;39.57;99148.84;5012647;28;20041;-72
2024/02/02 03:39:14;;;;;;;13.23;7.43;;;;;;;5.67;39.17;99153.34;5012733;28;20042;-74
2024/02/02 03:41:40;;;;;;;11.32;7.10;;;;;;;5.64;39.12;99145.72;4993629;28;20476;-73
2024/02/02 03:44:05;;;;;;;13.23;6.60;;;;;;;5.57;39.04;99140.03;5012678;28;20034;-73
2024/02/02 03:46:31;;;;;;;12.75;7.03;;;;;;;5.60;39.55;99147.66;4994640;28;20042;-72
2024/02/02 03:48:57;;;;;;;12.07;7.07;;;;;;;5.59;39.27;99154.56;4994886;28;20042;-73
2024/02/02 03:51:23;;;;;;;14.75;7.55;;;;;;;5.52;39.21;99135.06;4995046;28;20054;-72
2024/02/02 03:53:48;;;;;;;12.30;7.13;;;;;;;5.56;39.31;99152.13;4978910;28;20045;-72
2024/02/02 03:56:14;;;;;;;12.82;7.28;;;;;;;5.50;39.42;99134.28;5012225;28;20041;-72
2024/02/02 03:58:39;;;;;;;11.80;7.28;;;;;;;5.53;39.26;99149.66;4962449;28;20038;-72
2024/02/02 04:01:06;;;;;;;12.18;7.25;;;;;;;5.54;39.24;99166.06;4994914;28;20080;-72
2024/02/02 04:03:32;;;;;;;11.60;7.10;;;;;;;5.51;39.76;99166.22;4994919;28;20105;-73
2024/02/02 04:05:59;;;;;;;12.45;7.32;;;;;;;5.45;39.35;99156.97;4978480;28;20425;-73
2024/02/02 04:08:25;;;;;;;14.63;7.55;;;;;;;5.44;39.42;99161.34;4978234;28;20585;-72
2024/02/02 04:10:50;;;;;;;12.70;7.13;;;;;;;5.41;39.55;99161.47;4978433;28;20048;-72
2024/02/02 04:13:16;;;;;;;15.88;7.80;;;;;;;5.39;39.71;99173.66;4994647;28;20117;-72
2024/02/02 04:15:41;;;;;;;12.43;8.05;;;;;;;5.44;39.34;99176.03;5012118;28;20068;-73
2024/02/02 04:18:07;;;;;;;13.50;7.80;;;;;;;5.40;39.67;99183.09;5012065;28;20448;-73
2024/02/02 04:20:32;;;;;;;14.40;8.05;;;;;;;5.39;39.30;99171.09;4994779;28;20047;-73
2024/02/02 04:22:58;;;;;;;16.90;8.23;;;;;;;5.33;39.54;99162.75;4977788;28;20045;-72
2024/02/02 04:25:23;;;;;;;13.32;8.18;;;;;;;5.33;39.76;99161.03;4978349;28;20466;-74
2024/02/02 04:27:49;;;;;;;14.70;8.52;;;;;;;5.33;39.63;99170.50;4994401;28;20038;-73
2024/02/02 04:30:15;;;;;;;13.73;8.20;;;;;;;5.38;39.84;99173.75;4994253;28;20041;-72
2024/02/02 04:32:41;;;;;;;14.85;8.23;;;;;;;5.38;39.67;99178.91;5011909;28;20481;-72
2024/02/02 04:35:07;;;;;;;15.10;8.63;;;;;;;5.38;39.85;99184.09;4977991;28;20050;-72
2024/02/02 04:37:32;;;;;;;15.25;9.02;;;;;;;5.36;39.41;99185.91;4995346;28;20077;-73
2024/02/02 04:39:58;;;;;;;14.60;9.30;;;;;;;5.36;39.50;99189.34;4998055;28;20042;-73
2024/02/02 04:42:23;;;;;;;15.10;8.50;;;;;;;5.35;39.39;99197.19;4997912;28;20453;-72
2024/02/02 04:44:49;;;;;;;17.98;9.27;;;;;;;5.29;39.75;99187.13;5016095;28;20395;-76
2024/02/02 04:47:14;;;;;;;17.08;9.85;;;;;;;5.33;39.40;99193.81;4980960;28;20108;-79
2024/02/02 04:49:40;;;;;;;12.23;8.02;;;;;;;5.36;46.18;99191.06;5014856;28;20041;-74
2024/02/02 04:52:05;;;;;;;17.50;8.35;;;;;;;5.42;46.51;99204.59;5015643;28;20140;-78
2024/02/02 04:54:31;;;;;;;14.30;7.25;;;;;;;5.51;51.65;99205.88;4981348;28;20425;-80
2024/02/02 04:56:56;;;;;;;12.88;7.53;;;;;;;5.55;49.27;99203.97;4981805;28;20111;-73
2024/02/02 04:59:24;;;;;;;18.63;8.20;;;;;;;5.52;48.10;99205.00;5015406;28;20104;-71
2024/02/02 05:01:49;;;;;;;13.05;6.38;;;;;;;5.84;60.15;99204.34;4962007;28;20489;-72
2024/02/02 05:04:15;;;;;;;14.05;6.90;;;;;;;5.82;54.13;99201.81;4996221;28;20096;-71
2024/02/02 05:06:41;;;;;;;14.35;5.88;;;;;;;6.07;60.88;99214.44;4981864;28;20102;-71
2024/02/02 05:09:06;;;;;;;16.25;7.00;;;;;;;6.20;59.22;99212.06;4997617;28;20425;-71
2024/02/02 05:11:33;;;;;;;14.93;6.75;;;;;;;6.23;60.37;99206.72;4981897;28;20052;-71
2024/02/02 05:13:58;;;;;;;11.82;7.38;;;;;;;6.37;56.50;99218.13;5020134;28;20070;-72
2024/02/02 05:16:24;;;;;;;17.83;7.72;;;;;;;6.38;58.97;99215.47;5015006;28;20132;-71
2024/02/02 05:18:50;;;;;;;17.80;9.35;;;;;;;6.36;57.00;99213.84;4996734;28;20075;-73
2024/02/02 05:21:16;;;;;;;15.63;10.13;;;;;;;6.31;53.92;99220.13;4997723;28;20489;-72
2024/02/02 05:23:42;;;;;;;22.15;10.65;;;;;;;6.29;51.66;99227.16;4996527;28;20052;-71
2024/02/02 05:26:07;;;;;;;23.02;12.90;;;;;;;6.25;50.27;99229.97;4981497;28;20528;-71
2024/02/02 05:28:33;;;;;;;26.33;15.00;;;;;;;6.19;49.63;99230.28;4997501;28;20034;-79
2024/02/02 05:30:59;;;;;;;26.02;15.05;;;;;;;6.10;48.84;99223.78;4979968;28;20110;-84
2024/02/02 05:33:25;;;;;;;27.15;15.63;;;;;;;6.11;48.31;99234.09;4997510;28;20478;-82
2024/02/02 05:35:50;;;;;;;28.33;16.73;;;;;;;6.03;47.32;99235.41;4997261;28;20069;-82
2024/02/02 05:38:16;;;;;;;24.73;16.67;;;;;;;6.02;46.63;99244.06;4997732;28;20498;-80
2024/02/02 05:40:41;;;;;;;27.08;17.23;;;;;;;5.99;46.57;99229.50;4965901;28;20045;-79
2024/02/02 05:43:08;;;;;;;33.05;19.00;;;;;;;6.03;45.66;99249.19;4944593;28;20053;-80
2024/02/02 05:45:33;;;;;;;29.15;18.55;;;;;;;6.08;45.09;99251.56;4977669;28;20049;-80
2024/02/02 05:47:59;;;;;;;29.77;18.95;;;;;;;6.05;44.52;99226.63;4977857;28;20038;-79
2024/02/02 05:50:24;;;;;;;36.80;19.55;;;;;;;6.12;43.66;99264.28;4976758;28;20035;-80
2024/02/02 05:52:50;;;;;;;30.83;20.85;;;;;;;6.09;43.24;99238.50;4977638;28;20080;-80
2024/02/02 05:55:16;;;;;;;34.40;19.75;;;;;;;6.17;43.47;99240.72;4977541;28;20409;-80
2024/02/02 05:57:42;;;;;;;36.15;20.05;;;;;;;6.16;42.80;99247.66;4961745;28;20035;-80
2024/02/02 06:00:10;;;;;;;28.92;20.38;;;;;;;6.28;42.73;99255.75;4978060;28;20038;-79
2024/02/02 06:02:36;;;;;;;40.17;20.67;;;;;;;6.34;42.42;99245.03;4995236;28;20038;-79
2024/02/02 06:05:01;;;;;;;33.35;20.67;;;;;;;6.40;41.34;99249.91;4994761;28;20041;-79
2024/02/02 06:07:27;;;;;;;32.00;20.40;;;;;;;6.54;41.85;99264.78;4994706;28;20121;-79
2024/02/02 06:09:52;;;;;;;32.40;21.00;;;;;;;6.61;41.13;99276.53;4995214;28;20118;-79
2024/02/02 06:12:18;;;;;;;32.35;21.10;;;;;;;6.75;40.83;99264.59;4995006;28;20078;-81
2024/02/02 06:14:44;;;;;;;41.90;19.92;;;;;;;7.01;39.97;99273.63;4945539;28;20046;-80
2024/02/02 06:17:10;;;;;;;29.52;20.95;;;;;;;7.31;39.35;99283.28;4961368;28;20038;-81
2024/02/02 06:19:36;;;;;;;38.63;21.13;;;;;;;7.37;39.28;99273.41;4977957;28;20038;-81
2024/02/02 06:22:02;;;;;;;34.17;20.77;;;;;;;7.48;38.92;99277.16;4961491;28;20402;-82
2024/02/02 06:24:27;;;;;;;32.97;20.58;;;;;;;7.59;38.25;99282.59;4961597;28;20397;-80
2024/02/02 06:26:53;;;;;;;34.30;21.42;;;;;;;7.74;38.06;99288.72;4978333;28;20084;-80
2024/02/02 06:29:19;;;;;;;43.92;23.60;;;;;;;7.82;37.74;99296.09;4976930;28;20030;-80
2024/02/02 06:31:44;;;;;;;42.47;23.25;;;;;;;7.85;37.44;99282.91;4977012;28;20502;-82
2024/02/02 06:34:10;;;;;;;41.30;23.73;;;;;;;7.95;36.77;99302.25;4944342;28;20072;-79
2024/02/02 06:36:35;;;;;;;44.75;23.77;;;;;;;8.01;36.49;99311.50;4976126;28;20043;-79
2024/02/02 06:39:01;;;;;;;45.28;24.73;;;;;;;8.02;36.69;99301.00;4994060;28;20030;-79
2024/02/02 06:41:27;;;;;;;45.35;24.60;;;;;;;8.06;36.48;99315.47;4944395;28;20046;-79
2024/02/02 06:43:52;;;;;;;53.47;25.58;;;;;;;8.03;36.21;99330.44;4994110;28;20030;-79
2024/02/02 06:46:18;;;;;;;45.80;24.25;;;;;;;7.96;35.99;99328.16;4943751;28;20092;-78
2024/02/02 06:48:44;;;;;;;48.35;24.90;;;;;;;7.88;36.34;99319.97;4959865;28;20038;-78
2024/02/02 06:51:10;;;;;;;49.28;24.63;;;;;;;7.73;36.17;99313.88;4960529;28;20045;-79
2024/02/02 06:53:36;;;;;;;44.22;24.45;;;;;;;7.67;36.20;99326.34;4960780;28;20034;-79
2024/02/02 06:56:05;;;;;;;52.58;24.45;;;;;;;7.66;36.24;99335.91;4976511;28;20560;-78
2024/02/02 06:58:33;;;;;;;46.30;24.45;;;;;;;7.63;36.47;99333.47;4960603;28;20502;-78
2024/02/02 07:00:58;;;;;;;44.72;23.77;;;;;;;7.52;36.11;99335.81;4993638;28;20046;-79
2024/02/02 07:03:24;;;;;;;42.78;23.67;;;;;;;7.47;36.33;99332.66;4993802;28;20038;-79
2024/02/02 07:05:49;;;;;;;52.75;22.88;;;;;;;7.37;36.74;99337.50;4959676;28;20039;-78
2024/02/02 07:08:15;;;;;;;48.35;22.15;;;;;;;7.37;36.61;99334.91;4960733;28;20453;-78
2024/02/02 07:10:40;;;;;;;39.42;22.60;;;;;;;7.35;36.49;99342.78;4976328;28;20043;-80
2024/02/02 07:13:06;;;;;;;42.58;23.38;;;;;;;7.29;36.84;99337.91;4943548;28;20565;-80
2024/02/02 07:15:40;;;;;;;53.08;23.45;;;;;;;7.25;36.80;99346.75;4943995;28;20387;-78
2024/02/02 07:18:05;;;;;;;51.17;24.52;;;;;;;7.26;37.03;99340.66;4960660;28;20089;-80
2024/02/02 07:20:41;;;;;;;39.38;23.40;;;;;;;7.24;37.41;99337.28;4960272;28;20068;-77
2024/02/02 07:23:07;;;;;;;47.25;25.23;;;;;;;7.18;36.87;99335.00;4960352;28;20085;-78
2024/02/02 07:25:36;;;;;;;50.90;25.02;;;;;;;7.20;37.01;99352.19;4959965;28;20529;-78
2024/02/02 07:28:04;;;;;;;52.65;26.40;;;;;;;7.18;37.07;99335.88;4960236;28;20034;-77
2024/02/02 07:30:32;;;;;;;52.75;25.55;;;;;;;7.18;37.50;99351.44;4976197;28;20180;-80
2024/02/02 07:33:00;;;;;;;48.72;25.58;;;;;;;7.11;37.26;99349.25;4993663;28;20107;-80
2024/02/02 07:35:33;;;;;;;;;;;;;;;7.16;37.27;99352.44;4976443;28;20391;-79
2024/02/02 07:38:05;;;;;;;45.92;25.10;;;;;;;7.10;37.54;99373.53;4976382;28;19917;-80
2024/02/02 07:40:30;;;;;;;52.30;25.90;;;;;;;7.09;37.74;99367.50;4976211;28;20034;-78
2024/02/02 07:42:59;;;;;;;60.55;26.48;;;;;;;7.00;37.57;99355.81;4993432;28;20421;-78
2024/02/02 07:45:24;;;;;;;;;;;;;;;7.08;37.80;99365.81;4976515;28;20047;-78
2024/02/02 07:47:51;;;;;;;56.63;25.20;;;;;;;7.03;38.05;99376.44;4975747;28;19920;-80
2024/02/02 07:50:17;;;;;;;43.92;24.42;;;;;;;6.93;38.16;99346.69;4993901;28;20042;-78
2024/02/02 07:52:42;;;;;;;45.83;24.63;;;;;;;7.01;37.75;99361.88;4959018;28;20077;-80
2024/02/02 07:55:08;;;;;;;42.00;23.38;;;;;;;7.03;38.28;99355.66;4960928;28;20030;-79
2024/02/02 07:57:33;;;;;;;38.22;23.88;;;;;;;7.11;38.30;99380.41;4993237;28;20101;-79
2024/02/02 07:59:59;;;;;;;40.45;22.95;;;;;;;7.09;37.88;99364.09;4959956;28;20045;-79
2024/02/02 08:02:24;;;;;;;43.08;22.05;;;;;;;7.15;38.04;99380.16;4976004;28;20387;-79
2024/02/02 08:04:50;;;;;;;36.72;21.38;;;;;;;7.05;38.90;99350.41;4993377;28;20427;-82
2024/02/02 08:07:15;;;;;;;43.50;21.20;;;;;;;7.16;38.76;99375.81;4975852;28;20494;-78
2024/02/02 08:09:41;;;;;;;40.63;20.05;;;;;;;7.21;37.93;99384.19;4959853;28;20042;-78
2024/02/02 08:12:06;;;;;;;36.85;20.10;;;;;;;7.27;38.57;99391.66;4977184;28;20046;-79
2024/02/02 08:14:32;;;;;;;30.58;18.17;;;;;;;7.30;38.65;99401.06;4966354;28;20074;-78
2024/02/02 08:16:58;;;;;;;38.70;18.67;;;;;;;7.31;38.29;99381.97;4950307;28;20048;-78
2024/02/02 08:19:24;;;;;;;35.67;18.20;;;;;;;7.34;38.32;99390.44;4982620;28;20031;-79
2024/02/02 08:21:50;;;;;;;31.33;17.63;;;;;;;7.34;38.69;99387.84;4982519;28;20042;-79
2024/02/02 08:24:15;;;;;;;32.53;18.45;;;;;;;7.28;39.00;99375.16;4966042;28;20034;-79
2024/02/02 08:26:41;;;;;;;29.85;19.20;;;;;;;7.36;38.43;99382.56;4982360;28;20504;-78
2024/02/02 08:29:06;;;;;;;36.53;20.85;;;;;;;7.33;37.91;99388.75;4964727;28;20494;-79
2024/02/02 08:31:33;;;;;;;36.20;22.15;;;;;;;7.30;38.40;99385.47;4999659;28;20057;-79
2024/02/02 08:33:58;;;;;;;45.28;22.30;;;;;;;7.31;38.54;99393.19;4965545;28;20038;-79
2024/02/02 08:36:24;;;;;;;46.75;23.42;;;;;;;7.33;38.49;99398.31;4981295;28;20494;-78
2024/02/02 08:38:50;;;;;;;50.05;25.17;;;;;;;7.27;38.10;99389.06;4965608;28;20035;-79
2024/02/02 08:41:15;;;;;;;48.30;25.40;;;;;;;7.29;37.85;99389.00;4965798;28;20039;-78
2024/02/02 08:43:42;;;;;;;58.45;26.27;;;;;;;7.34;38.01;99406.03;4965867;28;20034;-79
2024/02/02 08:46:12;;;;;;;48.85;27.65;;;;;;;7.40;38.03;99402.25;4981875;28;20524;-79
2024/02/02 08:48:48;;;;;;;48.03;28.15;;;;;;;7.43;37.91;99409.88;4966410;28;20042;-79
2024/02/02 08:51:19;;;;;;;54.55;28.08;;;;;;;7.50;37.86;99410.41;4966404;28;20042;-78
2024/02/02 08:53:45;;;;;;;54.05;29.85;;;;;;;7.54;37.25;99406.72;4999531;28;20493;-79
2024/02/02 08:56:11;;;;;;;55.97;31.17;;;;;;;7.62;37.51;99414.94;4965589;28;20049;-78
2024/02/02 08:58:37;;;;;;;49.28;32.13;;;;;;;7.58;37.71;99408.25;4981604;28;20486;-77
2024/02/02 09:01:03;;;;;;;60.35;32.50;;;;;;;7.59;37.76;99407.31;4965734;28;20069;-78
2024/02/02 09:03:45;;;;;;;52.65;33.65;;;;;;;7.60;38.10;99415.03;4965099;28;20057;-78
2024/02/02 09:06:34;;;;;;;61.15;34.70;;;;;;;7.68;38.25;99418.97;4950457;28;20161;-79
2024/02/02 09:09:05;;;;;;;61.95;34.42;;;;;;;7.56;38.80;99420.50;4999080;28;20038;-80
2024/02/02 09:11:30;;;;;;;61.72;34.90;;;;;;;7.57;38.71;99424.75;4965626;28;20077;-80
2024/02/02 09:14:08;;;;;;;60.13;34.13;;;;;;;7.56;38.78;99429.13;4964166;28;20144;-79
2024/02/02 09:16:42;;;;;;;57.88;33.70;;;;;;;7.59;38.06;99426.34;4981414;28;20486;-79
2024/02/02 09:19:34;;;;;;;50.17;31.70;;;;;;;7.53;38.63;99431.88;4981831;28;20502;-77
2024/02/02 09:22:04;;;;;;;52.53;31.17;;;;;;;7.53;38.89;99420.66;4980979;28;20479;-78
2024/02/02 09:24:32;;;;;;;48.30;30.38;;;;;;;7.55;38.79;99444.78;4979953;28;20038;-78
2024/02/02 09:26:58;;;;;;;47.03;29.90;;;;;;;7.57;39.04;99428.19;4995875;28;20038;-78
2024/02/02 09:29:23;;;;;;;52.65;29.58;;;;;;;7.40;38.97;99442.06;4962076;28;20030;-78
2024/02/02 09:31:49;;;;;;;48.05;27.88;;;;;;;7.44;39.04;99424.56;4995827;28;20053;-78
2024/02/02 09:34:21;;;;;;;44.00;27.50;;;;;;;7.59;39.10;99428.94;4962741;28;20039;-79
2024/02/02 09:36:47;;;;;;;45.40;26.13;;;;;;;7.73;38.97;99437.75;4962542;28;20100;-79
2024/02/02 09:39:27;;;;;;;45.20;25.63;;;;;;;7.85;38.40;99439.72;4978557;28;20121;-79
2024/02/02 09:42:09;;;;;;;38.22;23.85;;;;;;;7.75;38.76;99435.94;4978165;28;20042;-79
2024/02/02 09:44:45;;;;;;;37.15;23.65;;;;;;;7.75;38.63;99436.78;4963577;28;20045;-80
2024/02/02 09:47:34;;;;;;;40.15;22.27;;;;;;;7.85;39.17;99431.91;4946222;28;20046;-78
2024/02/02 09:50:03;;;;;;;40.13;22.58;;;;;;;7.91;38.80;99430.75;4995945;28;20038;-81
2024/02/02 09:52:44;;;;;;;33.33;21.42;;;;;;;7.96;38.56;99426.13;4995287;28;20084;-81
2024/02/02 09:55:09;;;;;;;38.40;21.33;;;;;;;8.07;39.04;99444.59;4963023;28;20041;-80
2024/02/02 09:57:38;;;;;;;34.80;20.73;;;;;;;8.06;38.63;99429.06;4978326;28;20129;-79
2024/02/02 10:00:18;;;;;;;;;;;;;;;8.10;39.14;99428.81;4963017;28;20379;-78
2024/02/02 10:02:50;;;;;;;37.35;22.02;;;;;;;8.12;38.66;99433.94;4978139;28;19918;-80
2024/02/02 10:05:22;;;;;;;38.85;23.00;;;;;;;8.11;38.81;99440.03;4995003;28;20038;-82
2024/02/02 10:07:51;;;;;;;38.90;22.83;;;;;;;8.16;38.85;99432.84;4978212;28;20042;-79
2024/02/02 10:10:38;;;;;;;40.50;24.50;;;;;;;8.13;39.34;99436.44;4995333;28;20038;-78
2024/02/02 10:13:22;;;;;;;37.63;22.20;;;;;;;8.10;38.91;99434.00;4995123;28;20166;-79
2024/02/02 10:15:50;;;;;;;37.95;22.27;;;;;;;8.08;39.13;99435.88;4995351;28;20114;-80
2024/02/02 10:18:24;;;;;;;42.72;22.52;;;;;;;8.09;38.67;99441.91;4996237;28;20100;-79
2024/02/02 10:20:56;;;;;;;37.83;21.48;;;;;;;8.06;38.74;99442.91;4977829;28;20045;-78
2024/02/02 10:23:55;;;;;;;33.50;21.70;;;;;;;8.05;39.09;99427.38;4977535;28;20050;-80
2024/02/02 10:26:40;;;;;;;30.90;20.23;;;;;;;7.91;39.07;99430.75;4995204;28;20042;-78
2024/02/02 10:29:27;;;;;;;34.25;19.45;;;;;;;7.87;39.77;99424.84;4979922;28;20037;-78
2024/02/02 10:32:09;;;;;;;32.77;18.80;;;;;;;7.70;39.94;99430.97;4977821;28;20486;-78
2024/02/02 10:34:56;;;;;;;34.78;19.88;;;;;;;7.61;40.39;99423.69;4962397;28;20272;-81
2024/02/02 10:37:28;;;;;;;35.13;20.10;;;;;;;7.65;40.33;99429.53;4994758;28;20030;-78
2024/02/02 10:40:10;;;;;;;35.63;19.98;;;;;;;7.65;39.70;99419.97;4994747;28;20490;-80
2024/02/02 10:42:44;;;;;;;35.05;20.17;;;;;;;7.75;39.51;99434.16;4994336;28;20037;-79
2024/02/02 10:45:25;;;;;;;34.35;20.45;;;;;;;7.81;39.83;99422.59;4976957;28;20057;-79
2024/02/02 10:48:23;;;;;;;35.75;19.55;;;;;;;7.80;39.53;99420.94;4976734;28;20045;-82
2024/02/02 10:51:00;;;;;;;36.00;19.60;;;;;;;7.90;39.48;99427.28;4979367;28;20121;-80
2024/02/02 10:53:50;;;;;;;34.60;19.33;;;;;;;7.95;39.42;99422.72;4962157;28;20434;-79
2024/02/02 10:56:15;;;;;;;36.95;19.52;;;;;;;8.01;39.62;99429.31;4994761;28;20038;-78
2024/02/02 10:59:12;;;;;;;35.08;18.55;;;;;;;8.06;39.45;99426.47;4976745;28;20038;-78
2024/02/02 11:02:08;;;;;;;36.70;18.02;;;;;;;8.09;40.00;99423.69;4976668;28;20042;-78
2024/02/02 11:04:49;;;;;;;33.65;17.85;;;;;;;8.13;39.95;99425.22;4994334;28;20109;-78
2024/02/02 11:07:22;;;;;;;26.13;15.90;;;;;;;8.13;40.01;99415.66;4994135;28;20108;-79
2024/02/02 11:10:07;;;;;;;27.02;14.15;;;;;;;8.18;40.76;99418.00;4976516;28;20485;-80
2024/02/02 11:12:35;;;;;;;27.65;13.02;;;;;;;8.22;41.03;99426.47;4945835;28;20137;-79
2024/02/02 11:15:34;;;;;;;26.30;13.00;;;;;;;8.25;41.16;99416.72;4976268;28;20466;-80
2024/02/02 11:18:16;;;;;;;22.45;11.35;;;;;;;8.29;41.67;99420.81;4993834;28;20120;-81
2024/02/02 11:20:49;;;;;;;17.67;10.05;;;;;;;8.33;41.93;99424.94;4960551;28;20130;-79
2024/02/02 11:23:22;;;;;;;16.77;10.27;;;;;;;8.30;42.09;99417.31;4993948;28;20097;-80
2024/02/02 11:25:53;;;;;;;17.40;9.30;;;;;;;8.33;42.33;99413.69;4976218;28;20438;-78
2024/02/02 11:28:23;;;;;;;15.68;8.50;;;;;;;8.39;43.13;99428.13;4959840;28;20038;-78
2024/02/02 11:31:04;;;;;;;12.23;8.07;;;;;;;8.44;42.66;99420.91;4993850;28;20521;-77
2024/02/02 11:34:00;;;;;;;12.85;7.65;;;;;;;8.46;42.75;99417.31;4993448;28;20047;-80
2024/02/02 11:36:32;;;;;;;11.68;7.00;;;;;;;8.54;43.01;99419.50;4960244;28;20046;-78